createdAt,value
2016-02-02T07:38:24.220Z,5856
2016-02-02T07:38:37.658Z,5880
2016-02-02T07:38:51.361Z,5904
2016-02-02T07:39:05.236Z,5920
2016-02-02T07:39:21.948Z,5944
2016-02-02T07:39:35.604Z,5956
2016-02-02T07:39:49.338Z,5968
2016-02-02T07:40:03.635Z,5980
2016-02-02T07:40:17.888Z,5988
2016-02-02T07:40:32.607Z,5992
2016-02-02T07:40:46.982Z,6004
2016-02-02T07:41:04.342Z,6008
2016-02-02T07:41:32.766Z,6016
2016-02-02T07:41:47.063Z,6020
2016-02-02T07:42:01.063Z,6028
2016-02-02T07:42:14.785Z,6032
2016-02-02T07:42:42.832Z,6044
2016-02-02T07:42:57.160Z,6052
2016-02-02T07:43:14.335Z,6068
2016-02-02T07:43:26.929Z,6080
2016-02-02T07:43:41.366Z,6096
2016-02-02T07:43:58.054Z,6112
2016-02-02T07:44:12.494Z,6132
2016-02-02T07:44:40.822Z,6176
2016-02-02T07:44:54.682Z,6200
2016-02-02T07:45:08.463Z,6224
2016-02-02T07:45:22.496Z,6248
2016-02-02T07:45:36.762Z,6272
2016-02-02T07:45:53.668Z,6304
2016-02-02T07:46:07.434Z,6324
2016-02-02T07:46:24.343Z,6356
2016-02-02T07:46:38.062Z,6376
2016-02-02T07:46:51.858Z,6400
2016-02-02T07:47:05.702Z,6424
2016-02-02T07:47:33.751Z,6464
2016-02-02T07:47:48.017Z,6480
2016-02-02T07:48:02.175Z,6500
2016-02-02T07:48:16.334Z,6520
2016-02-02T07:48:30.397Z,6532
2016-02-02T07:48:44.834Z,6552
2016-02-02T07:49:01.787Z,6576
2016-02-02T07:49:15.587Z,6592
2016-02-02T07:49:32.478Z,6620
2016-02-02T07:49:46.228Z,6644
2016-02-02T07:49:59.978Z,6664
2016-02-02T07:50:14.074Z,6692
2016-02-02T07:50:28.326Z,6720
2016-02-02T07:50:42.030Z,6744
2016-02-02T07:50:59.170Z,6784
2016-02-02T07:51:12.799Z,6812
2016-02-02T07:51:26.690Z,6848
2016-02-02T07:51:40.752Z,6884
2016-02-02T07:52:08.549Z,6964
2016-02-02T07:52:22.114Z,7008
2016-02-02T07:52:36.004Z,7056
2016-02-02T07:52:50.661Z,7112
2016-02-02T07:53:04.520Z,7172
2016-02-02T07:53:19.023Z,7236
2016-02-02T07:53:32.726Z,7300
2016-02-02T07:53:46.414Z,7372
2016-02-02T07:54:14.447Z,7528
2016-02-02T07:54:28.150Z,7600
2016-02-02T07:54:56.545Z,7764
2016-02-02T07:55:24.595Z,7924
2016-02-02T07:55:41.408Z,8024
2016-02-02T07:55:55.142Z,8096
2016-02-02T07:56:09.019Z,8172
2016-02-02T07:56:23.379Z,8240
2016-02-02T07:56:51.847Z,8348
2016-02-02T07:57:05.769Z,8404
2016-02-02T07:57:19.382Z,8440
2016-02-02T07:57:33.975Z,8480
2016-02-02T07:57:48.460Z,8520
2016-02-02T07:58:16.635Z,8576
2016-02-02T07:58:44.541Z,8616
2016-02-02T07:59:12.435Z,8648
2016-02-02T07:59:26.420Z,8656
2016-02-02T07:59:40.405Z,8664
2016-02-02T07:59:54.983Z,8676
2016-02-02T08:00:08.593Z,8676
2016-02-02T08:00:22.329Z,8676
2016-02-02T08:01:04.360Z,8652
2016-02-02T08:01:18.613Z,8648
2016-02-02T08:01:32.223Z,8636
2016-02-02T08:01:45.895Z,8624
2016-02-02T08:01:59.535Z,8620
2016-02-02T08:02:13.491Z,8620
2016-02-02T08:02:27.351Z,8624
2016-02-02T08:02:55.523Z,8636
2016-02-02T08:03:23.432Z,8656
2016-02-02T08:03:37.432Z,8676
2016-02-02T08:03:54.494Z,8704
2016-02-02T08:04:08.447Z,8736
2016-02-02T08:04:22.412Z,8768
2016-02-02T08:04:36.229Z,8804
2016-02-02T08:04:49.838Z,8844
2016-02-02T08:05:03.635Z,8888
2016-02-02T08:05:17.294Z,8936
2016-02-02T08:05:45.294Z,9032
2016-02-02T08:06:02.029Z,9096
2016-02-02T08:06:16.156Z,9152
2016-02-02T08:06:30.234Z,9200
2016-02-02T08:06:44.439Z,9252
2016-02-02T08:06:58.876Z,9304
2016-02-02T08:07:12.724Z,9356
2016-02-02T08:07:26.302Z,9404
2016-02-02T08:07:40.130Z,9440
2016-02-02T08:08:08.443Z,9524
2016-02-02T08:08:22.585Z,9564
2016-02-02T08:08:37.164Z,9600
2016-02-02T08:09:33.400Z,9752
2016-02-02T08:09:50.853Z,9812
2016-02-02T08:10:04.634Z,9852
2016-02-02T08:10:18.465Z,9896
2016-02-02T08:10:32.762Z,9944
2016-02-02T08:10:53.090Z,10008
2016-02-02T08:11:07.872Z,10048
2016-02-02T08:11:22.172Z,10076
2016-02-02T08:11:35.968Z,10112
2016-02-02T08:11:50.047Z,10144
2016-02-02T08:12:04.140Z,10184
2016-02-02T08:12:32.456Z,10264
2016-02-02T08:12:46.534Z,10312
2016-02-02T08:13:03.503Z,10372
2016-02-02T08:13:31.473Z,10496
2016-02-02T08:13:59.622Z,10624
2016-02-02T08:14:41.219Z,10828
2016-02-02T08:14:55.359Z,10900
2016-02-02T08:15:23.507Z,11036
2016-02-02T08:15:37.444Z,11108
2016-02-02T08:15:51.304Z,11184
2016-02-02T08:16:05.306Z,11260
2016-02-02T08:16:19.198Z,11332
2016-02-02T08:16:33.089Z,11400
2016-02-02T08:17:02.214Z,11524
2016-02-02T08:17:16.795Z,11580
2016-02-02T08:17:36.842Z,11632
2016-02-02T08:17:50.451Z,11644
2016-02-02T08:18:03.920Z,11640
2016-02-02T08:18:59.470Z,11568
2016-02-02T08:19:13.081Z,11548
2016-02-02T08:19:26.831Z,11528
2016-02-02T08:19:40.753Z,11516
2016-02-02T08:19:54.972Z,11496
2016-02-02T08:20:08.972Z,11480
2016-02-02T08:20:22.600Z,11472
2016-02-02T08:20:36.522Z,11464
2016-02-02T08:20:51.415Z,11472
2016-02-02T08:21:08.118Z,11480
2016-02-02T08:21:21.653Z,11504
2016-02-02T08:21:35.512Z,11524
2016-02-02T08:21:49.137Z,11552
2016-02-02T08:22:03.106Z,11588
2016-02-02T08:22:16.843Z,11628
2016-02-02T08:22:30.718Z,11676
2016-02-02T08:22:44.953Z,11724
2016-02-02T08:23:12.986Z,11824
2016-02-02T08:23:41.001Z,11932
2016-02-02T08:23:54.923Z,11988
2016-02-02T08:24:11.911Z,12052
2016-02-02T08:24:25.723Z,12104
2016-02-02T08:24:39.364Z,12156
2016-02-02T08:24:53.004Z,12208
2016-02-02T08:25:07.317Z,12256
2016-02-02T08:25:24.040Z,12312
2016-02-02T08:25:37.649Z,12360
2016-02-02T08:25:55.368Z,12416
2016-02-02T08:26:09.180Z,12456
2016-02-02T08:26:22.995Z,12504
2016-02-02T08:26:50.729Z,12580
2016-02-02T08:27:04.557Z,12612
2016-02-02T08:27:18.139Z,12644
2016-02-02T08:27:32.140Z,12684
2016-02-02T08:27:45.734Z,12724
2016-02-02T08:28:02.781Z,12764
2016-02-02T08:28:16.800Z,12792
2016-02-02T08:28:30.690Z,12828
2016-02-02T08:28:58.675Z,12892
2016-02-02T08:29:12.333Z,12912
2016-02-02T08:29:40.302Z,12968
2016-02-02T08:29:53.989Z,12992
2016-02-02T08:30:07.712Z,13016
2016-02-02T08:30:21.418Z,13040
2016-02-02T08:31:04.090Z,13108
2016-02-02T08:31:18.202Z,13112
2016-02-02T08:31:32.061Z,13120
2016-02-02T08:31:45.030Z,13116
2016-02-02T08:32:01.640Z,13104
2016-02-02T08:32:15.454Z,13096
2016-02-02T08:32:29.157Z,13076
2016-02-02T08:32:43.142Z,13056
2016-02-02T08:33:02.985Z,13016
2016-02-02T08:33:16.582Z,12992
2016-02-02T08:33:30.301Z,12952
2016-02-02T08:33:43.941Z,12920
2016-02-02T08:34:00.863Z,12884
2016-02-02T08:34:28.663Z,12796
2016-02-02T08:34:42.944Z,12768
2016-02-02T08:34:56.819Z,12748
2016-02-02T08:35:10.398Z,12728
2016-02-02T08:35:24.244Z,12708
2016-02-02T08:35:37.885Z,12692
2016-02-02T08:35:52.526Z,12688
2016-02-02T08:36:06.166Z,12672
2016-02-02T08:36:19.981Z,12672
2016-02-02T08:36:33.793Z,12676
2016-02-02T08:36:47.481Z,12684
2016-02-02T08:37:01.371Z,12696
2016-02-02T08:37:17.890Z,12700
2016-02-02T08:37:31.562Z,12704
2016-02-02T08:37:59.484Z,12716
2016-02-02T08:38:14.174Z,12724
2016-02-02T08:38:27.721Z,12712
2016-02-02T08:38:41.455Z,12708
2016-02-02T08:38:55.721Z,12704
2016-02-02T08:39:09.784Z,12708
2016-02-02T08:39:26.443Z,12716
2016-02-02T08:39:40.083Z,12732
2016-02-02T08:39:53.630Z,12744
2016-02-02T08:40:07.271Z,12768
2016-02-02T08:40:20.898Z,12796
2016-02-02T08:40:34.695Z,12848
2016-02-02T08:40:48.414Z,12912
2016-02-02T08:41:16.120Z,13076
2016-02-02T08:41:29.667Z,13148
2016-02-02T08:41:46.338Z,13248
2016-02-02T08:41:59.918Z,13360
2016-02-02T08:42:16.905Z,13492
2016-02-02T08:42:30.421Z,13616
2016-02-02T08:42:44.233Z,13752
2016-02-02T08:42:58.124Z,13896
2016-02-02T08:43:12.110Z,14052
2016-02-02T08:43:40.313Z,14432
2016-02-02T08:43:53.876Z,14612
2016-02-02T08:44:07.423Z,14740
2016-02-02T08:44:24.644Z,14884
2016-02-02T08:45:06.613Z,15360
2016-02-02T08:45:20.757Z,15512
2016-02-02T08:45:34.397Z,15676
2016-02-02T08:45:48.460Z,15860
2016-02-02T08:46:02.616Z,16032
2016-02-02T08:46:51.652Z,16724
2016-02-02T08:47:34.483Z,17476
2016-02-02T08:47:49.999Z,17920
2016-02-02T08:49:03.377Z,19456
2016-02-02T08:49:17.973Z,19776
2016-02-02T08:49:32.192Z,20160
2016-02-02T08:50:03.613Z,20896
2016-02-02T08:50:18.304Z,21312
2016-02-02T08:50:34.163Z,21632
2016-02-02T08:50:51.132Z,22048
2016-02-02T08:51:21.043Z,22496
2016-02-02T08:51:52.793Z,23136
2016-02-02T08:52:22.234Z,24096
2016-02-02T08:52:36.531Z,25056
2016-02-02T08:52:51.062Z,25920
2016-02-02T08:53:05.374Z,26592
2016-02-02T08:53:25.783Z,27616
2016-02-02T08:54:01.001Z,30624
2016-02-02T08:54:31.410Z,31104
2016-02-02T08:54:49.535Z,31808
2016-02-02T08:55:07.175Z,31488
2016-02-02T08:55:35.601Z,29728
2016-02-02T08:55:50.367Z,28160
2016-02-02T08:56:18.482Z,28160
2016-02-02T08:56:33.295Z,28032
2016-02-02T08:56:48.123Z,27872
2016-02-02T08:57:16.141Z,28896
2016-02-02T08:57:30.344Z,29696
2016-02-02T08:57:45.438Z,29024
2016-02-02T08:58:28.213Z,30944
2016-02-02T08:58:54.978Z,34016
2016-02-02T08:59:09.259Z,31840
2016-02-02T08:59:24.012Z,29856
2016-02-02T09:00:09.575Z,31328
2016-02-02T09:00:26.984Z,31392
2016-02-02T09:00:41.156Z,32128
2016-02-02T09:00:55.672Z,33728
2016-02-02T09:01:10.437Z,33216
2016-02-02T09:01:38.940Z,33472
2016-02-02T09:01:58.253Z,31872
2016-02-02T09:02:26.317Z,29824
2016-02-02T09:02:43.614Z,29792
2016-02-02T09:03:00.287Z,30592
2016-02-02T09:03:28.696Z,30208
2016-02-02T09:04:00.806Z,30336
2016-02-02T09:04:15.620Z,30432
2016-02-02T09:04:30.948Z,29248
2016-02-02T09:05:28.640Z,26560
2016-02-02T09:05:42.530Z,25792
2016-02-02T09:06:11.343Z,26432
2016-02-02T09:06:25.470Z,25664
2016-02-02T09:07:07.470Z,25472
2016-02-02T09:07:21.504Z,26368
2016-02-02T09:07:35.895Z,26688
2016-02-02T09:07:50.961Z,27168
2016-02-02T09:08:05.008Z,28128
2016-02-02T09:08:20.151Z,28864
2016-02-02T09:08:34.448Z,29120
2016-02-02T09:08:48.760Z,28704
2016-02-02T09:09:02.135Z,28576
2016-02-02T09:09:36.419Z,28000
2016-02-02T09:10:42.969Z,26208
2016-02-02T09:11:15.332Z,26240
2016-02-02T09:11:29.128Z,26816
2016-02-02T09:12:12.675Z,26656
2016-02-02T09:12:27.070Z,26784
2016-02-02T09:12:41.351Z,26880
2016-02-02T09:12:55.445Z,26752
2016-02-02T09:13:09.664Z,28352
2016-02-02T09:13:38.089Z,29600
2016-02-02T09:13:55.777Z,31296
2016-02-02T09:14:44.780Z,31840
2016-02-02T09:15:13.186Z,37600
2016-02-02T09:15:28.063Z,37600
2016-02-02T09:16:02.204Z,41760
2016-02-02T09:16:16.519Z,37120
2016-02-02T09:16:44.582Z,34912
2016-02-02T09:16:58.394Z,38464
2016-02-02T09:17:12.192Z,40928
2016-02-02T09:17:26.727Z,46144
2016-02-02T09:17:41.086Z,45280
2016-02-02T09:18:09.914Z,46912
2016-02-02T09:18:26.947Z,47424
2016-02-02T09:19:23.232Z,43712
2016-02-02T09:19:38.232Z,41376
2016-02-02T09:19:52.503Z,43808
2016-02-02T09:20:07.081Z,44608
2016-02-02T09:20:21.443Z,43008
2016-02-02T09:20:36.381Z,43520
2016-02-02T09:20:50.115Z,43200
2016-02-02T09:21:08.068Z,40384
2016-02-02T09:21:29.274Z,39904
2016-02-02T09:21:57.492Z,42304
2016-02-02T09:22:12.211Z,38336
2016-02-02T09:22:30.089Z,37376
2016-02-02T09:22:44.527Z,41152
2016-02-02T09:23:01.620Z,44544
2016-02-02T09:23:15.904Z,41728
2016-02-02T09:23:30.169Z,38880
2016-02-02T09:23:45.732Z,38144
2016-02-02T09:23:59.794Z,41280
2016-02-02T09:24:14.251Z,44192
2016-02-02T09:24:29.095Z,40672
2016-02-02T09:24:42.845Z,36096
2016-02-02T09:24:57.079Z,35904
2016-02-02T09:25:51.863Z,42080
2016-02-02T09:26:22.788Z,45376
2016-02-02T09:26:37.178Z,44960
2016-02-02T09:26:51.538Z,48192
2016-02-02T09:27:08.791Z,48544
2016-02-02T09:27:26.528Z,49216
2016-02-02T09:27:58.434Z,51360
2016-02-02T09:28:12.715Z,50944
2016-02-02T09:28:26.952Z,49792
2016-02-02T09:28:56.030Z,50720
2016-02-02T09:29:09.764Z,49344
2016-02-02T09:29:38.611Z,48768
2016-02-02T09:29:52.720Z,50240
2016-02-02T09:30:09.564Z,52256
2016-02-02T09:30:52.723Z,52032
2016-02-02T09:31:21.569Z,52416
2016-02-02T09:31:38.897Z,50880
2016-02-02T09:32:07.382Z,48672
2016-02-02T09:32:27.791Z,48224
2016-02-02T09:32:56.088Z,45504
2016-02-02T09:33:11.119Z,44672
2016-02-02T09:33:39.060Z,46304
2016-02-02T09:33:56.153Z,46272
2016-02-02T09:34:28.484Z,48416
2016-02-02T09:34:42.563Z,48608
2016-02-02T09:34:57.609Z,47904
2016-02-02T09:35:25.566Z,48928
2016-02-02T09:35:43.237Z,50240
2016-02-02T09:35:57.612Z,51392
2016-02-02T09:36:25.959Z,51296
2016-02-02T09:36:40.397Z,50688
2016-02-02T09:36:54.725Z,50528
2016-02-02T09:37:10.740Z,52000
2016-02-02T09:37:59.525Z,50592
2016-02-02T09:38:14.699Z,51520
2016-02-02T09:38:28.496Z,51008
2016-02-02T09:38:43.653Z,49728
2016-02-02T09:39:30.515Z,46208
2016-02-02T09:40:15.579Z,44800
2016-02-02T09:40:59.111Z,39520
2016-02-02T09:41:13.189Z,38656
2016-02-02T09:41:27.895Z,37824
2016-02-02T09:41:45.067Z,37280
2016-02-02T09:42:07.129Z,35936
2016-02-02T09:42:36.148Z,34816
2016-02-02T09:42:50.460Z,33760
2016-02-02T09:43:07.835Z,32672
2016-02-02T09:43:36.213Z,30720
2016-02-02T09:43:54.479Z,30240
2016-02-02T09:44:26.497Z,29152
2016-02-02T09:44:41.512Z,28768
2016-02-02T09:44:55.825Z,28480
2016-02-02T09:45:13.700Z,28128
2016-02-02T09:45:31.172Z,27808
2016-02-02T09:45:45.437Z,27264
2016-02-02T09:45:59.265Z,26880
2016-02-02T09:46:14.718Z,26656
2016-02-02T09:46:28.425Z,26592
2016-02-02T09:46:43.003Z,26560
2016-02-02T09:47:10.346Z,26656
2016-02-02T09:47:24.395Z,26624
2016-02-02T09:47:38.145Z,26496
2016-02-02T09:47:52.020Z,26464
2016-02-02T09:48:10.708Z,26400
2016-02-02T09:48:27.523Z,26432
2016-02-02T09:48:44.820Z,26528
2016-02-02T09:49:07.539Z,26688
2016-02-02T09:50:04.793Z,27424
2016-02-02T09:50:21.359Z,27776
2016-02-02T09:50:35.500Z,27904
2016-02-02T09:50:49.234Z,28064
2016-02-02T09:51:17.252Z,28416
2016-02-02T09:51:31.377Z,28640
2016-02-02T09:51:45.471Z,28704
2016-02-02T09:51:59.721Z,29024
2016-02-02T09:52:41.364Z,30336
2016-02-02T09:52:55.349Z,30912
2016-02-02T09:53:09.380Z,31456
2016-02-02T09:53:23.288Z,31776
2016-02-02T09:53:50.929Z,32096
2016-02-02T09:54:04.851Z,32672
2016-02-02T09:54:36.182Z,33184
2016-02-02T09:54:49.948Z,34016
2016-02-02T09:55:04.073Z,34912
2016-02-02T09:55:31.654Z,35360
2016-02-02T09:55:45.482Z,34944
2016-02-02T09:55:59.221Z,34528
2016-02-02T09:56:14.330Z,34560
2016-02-02T09:56:31.302Z,34592
2016-02-02T09:56:48.615Z,34848
2016-02-02T09:57:02.599Z,33184
2016-02-02T09:57:30.617Z,33024
2016-02-02T09:57:45.210Z,33280
2016-02-02T09:58:01.960Z,33728
2016-02-02T09:58:15.791Z,33632
2016-02-02T09:59:00.697Z,35904
2016-02-02T09:59:14.587Z,36768
2016-02-02T09:59:42.685Z,38240
2016-02-02T10:00:10.748Z,36768
2016-02-02T10:00:39.516Z,34720
2016-02-02T10:00:53.079Z,35456
2016-02-02T10:01:06.657Z,34912
2016-02-02T10:01:20.612Z,34080
2016-02-02T10:01:37.772Z,33408
2016-02-02T10:01:52.147Z,33472
2016-02-02T10:02:05.913Z,33632
2016-02-02T10:02:19.385Z,33376
2016-02-02T10:02:33.369Z,33664
2016-02-02T10:02:47.416Z,33952
2016-02-02T10:03:01.353Z,33472
2016-02-02T10:03:14.947Z,34240
2016-02-02T10:03:28.763Z,34016
2016-02-02T10:03:43.184Z,33408
2016-02-02T10:04:10.904Z,32832
2016-02-02T10:04:24.797Z,33216
2016-02-02T10:04:38.469Z,33600
2016-02-02T10:04:53.094Z,34208
2016-02-02T10:05:07.094Z,34304
2016-02-02T10:05:20.753Z,35232
2016-02-02T10:05:34.690Z,34528
2016-02-02T10:06:16.802Z,32032
2016-02-02T10:06:30.630Z,32640
2016-02-02T10:06:44.896Z,33952
2016-02-02T10:07:02.067Z,35552
2016-02-02T10:07:16.005Z,38048
2016-02-02T10:07:29.649Z,40160
2016-02-02T10:07:57.289Z,42304
2016-02-02T10:08:11.195Z,39680
2016-02-02T10:08:24.698Z,37472
2016-02-02T10:08:42.340Z,35040
2016-02-02T10:08:56.184Z,35424
2016-02-02T10:09:10.653Z,33952
2016-02-02T10:09:38.343Z,36992
2016-02-02T10:10:06.077Z,35232
2016-02-02T10:10:20.283Z,34464
2016-02-02T10:10:35.798Z,36160
2016-02-02T10:10:49.548Z,37184
2016-02-02T10:11:03.783Z,36960
2016-02-02T10:11:17.832Z,37216
2016-02-02T10:11:32.207Z,37728
2016-02-02T10:11:45.832Z,42240
2016-02-02T10:12:13.754Z,39712
2016-02-02T10:12:27.741Z,40064
2016-02-02T10:13:09.631Z,31168
2016-02-02T10:13:23.385Z,31680
2016-02-02T10:13:37.213Z,36032
2016-02-02T10:13:51.276Z,37024
2016-02-02T10:14:05.292Z,36896
2016-02-02T10:14:18.965Z,33664
2016-02-02T10:14:47.059Z,26432
2016-02-02T10:15:10.137Z,24032
2016-02-02T10:15:23.967Z,23776
2016-02-02T10:15:37.780Z,23744
2016-02-02T10:15:52.030Z,23520
2016-02-02T10:16:20.017Z,23584
2016-02-02T10:16:33.455Z,23744
2016-02-02T10:16:47.720Z,24032
2016-02-02T10:17:01.377Z,24128
2016-02-02T10:17:15.424Z,23872
2016-02-02T10:17:28.911Z,23936
2016-02-02T10:17:57.567Z,24736
2016-02-02T10:18:11.692Z,25248
2016-02-02T10:18:24.883Z,26272
2016-02-02T10:18:38.445Z,26336
2016-02-02T10:18:55.258Z,26240
2016-02-02T10:19:09.164Z,26144
2016-02-02T10:19:23.588Z,26624
2016-02-02T10:19:37.353Z,27520
2016-02-02T10:19:54.213Z,29312
2016-02-02T10:20:07.791Z,30912
2016-02-02T10:20:49.653Z,37248
2016-02-02T10:21:03.106Z,40800
2016-02-02T10:21:16.921Z,38976
2016-02-02T10:21:44.952Z,36960
2016-02-02T10:21:58.780Z,36960
2016-02-02T10:22:12.437Z,38400
2016-02-02T10:22:26.611Z,40736
2016-02-02T10:22:40.877Z,40384
2016-02-02T10:22:54.924Z,40352
2016-02-02T10:23:11.643Z,38816
2016-02-02T10:23:28.193Z,34368
2016-02-02T10:23:41.849Z,37152
2016-02-02T10:23:58.771Z,39296
2016-02-02T10:24:26.524Z,38624
2016-02-02T10:24:39.430Z,40672
2016-02-02T10:25:07.446Z,38560
2016-02-02T10:25:22.026Z,38400
2016-02-02T10:25:35.573Z,34624
2016-02-02T10:26:03.369Z,33984
2016-02-02T10:26:17.486Z,32352
2016-02-02T10:26:31.454Z,33248
2016-02-02T10:26:46.001Z,34432
2016-02-02T10:27:03.017Z,36160
2016-02-02T10:27:17.192Z,34048
2016-02-02T10:27:34.067Z,35936
2016-02-02T10:27:47.723Z,38080
2016-02-02T10:28:01.692Z,35008
2016-02-02T10:28:15.598Z,35200
2016-02-02T10:28:29.273Z,39168
2016-02-02T10:28:43.242Z,37376
2016-02-02T10:28:57.335Z,38048
2016-02-02T10:29:10.945Z,38944
2016-02-02T10:29:24.681Z,41344
2016-02-02T10:29:38.416Z,39840
2016-02-02T10:30:20.544Z,39840
2016-02-02T10:30:34.294Z,43360
2016-02-02T10:31:19.062Z,42656
2016-02-02T10:31:33.172Z,41440
2016-02-02T10:32:14.971Z,39360
2016-02-02T10:32:28.865Z,39392
2016-02-02T10:32:46.256Z,36128
2016-02-02T10:33:00.193Z,35552
2016-02-02T10:33:44.867Z,34144
2016-02-02T10:34:13.180Z,33312
2016-02-02T10:34:29.025Z,32896
2016-02-02T10:34:42.646Z,33088
2016-02-02T10:34:56.974Z,32384
2016-02-02T10:35:24.727Z,32928
2016-02-02T10:35:53.118Z,33280
2016-02-02T10:36:06.931Z,33440
2016-02-02T10:36:20.434Z,34368
2016-02-02T10:36:49.387Z,36000
2016-02-02T10:37:17.215Z,39712
2016-02-02T10:37:31.718Z,41920
2016-02-02T10:38:02.499Z,49152
2016-02-02T10:38:16.702Z,49120
2016-02-02T10:38:31.204Z,48992
2016-02-02T10:38:44.845Z,48544
2016-02-02T10:38:58.829Z,43360
2016-02-02T10:39:12.752Z,37568
2016-02-02T10:39:26.444Z,35488
2016-02-02T10:39:43.162Z,33984
2016-02-02T10:39:56.740Z,33504
2016-02-02T10:40:13.631Z,33280
2016-02-02T10:40:27.977Z,33088
2016-02-02T10:40:41.727Z,33024
2016-02-02T10:40:55.727Z,32672
2016-02-02T10:41:19.089Z,32576
2016-02-02T10:41:33.214Z,32640
2016-02-02T10:41:47.230Z,32160
2016-02-02T10:42:01.136Z,32544
2016-02-02T10:42:14.917Z,32832
2016-02-02T10:42:43.122Z,33024
2016-02-02T10:42:57.091Z,33152
2016-02-02T10:43:10.826Z,33056
2016-02-02T10:43:24.407Z,33312
2016-02-02T10:43:44.344Z,33280
2016-02-02T10:44:13.125Z,34176
2016-02-02T10:44:27.082Z,34080
2016-02-02T10:44:43.925Z,34496
2016-02-02T10:44:58.128Z,35200
2016-02-02T10:45:11.753Z,35104
2016-02-02T10:45:25.897Z,35872
2016-02-02T10:45:53.866Z,37312
2016-02-02T10:46:07.397Z,39616
2016-02-02T10:46:35.744Z,41408
2016-02-02T10:46:49.338Z,42496
2016-02-02T10:47:03.166Z,42048
2016-02-02T10:47:17.541Z,41856
2016-02-02T10:47:45.433Z,40192
2016-02-02T10:48:41.233Z,43584
2016-02-02T10:48:57.780Z,47456
2016-02-02T10:49:25.362Z,53536
2016-02-02T10:49:38.815Z,53536
2016-02-02T10:49:52.831Z,52736
2016-02-02T10:50:09.472Z,51712
2016-02-02T10:50:25.411Z,49760
2016-02-02T10:50:39.395Z,47072
2016-02-02T10:50:53.552Z,47648
2016-02-02T10:51:07.192Z,46912
2016-02-02T10:51:20.897Z,48576
2016-02-02T10:51:49.038Z,46528
2016-02-02T10:52:16.819Z,44320
2016-02-02T10:52:31.885Z,44096
2016-02-02T10:52:45.916Z,42592
2016-02-02T10:52:59.541Z,41664
2016-02-02T10:53:13.572Z,41280
2016-02-02T10:53:27.888Z,41312
2016-02-02T10:53:41.544Z,37696
2016-02-02T10:53:55.232Z,38496
2016-02-02T10:54:09.388Z,38208
2016-02-02T10:54:23.453Z,38432
2016-02-02T10:54:40.422Z,38336
2016-02-02T10:54:54.516Z,37376
2016-02-02T10:55:11.297Z,37856
2016-02-02T10:55:24.987Z,40928
2016-02-02T10:55:38.596Z,38336
2016-02-02T10:55:52.549Z,36320
2016-02-02T10:56:20.568Z,36896
2016-02-02T10:56:33.724Z,37536
2016-02-02T10:56:50.615Z,40128
2016-02-02T10:57:13.368Z,37312
2016-02-02T10:57:29.965Z,37568
2016-02-02T10:57:42.856Z,36096
2016-02-02T10:57:56.731Z,34624
2016-02-02T10:58:10.498Z,34176
2016-02-02T10:58:24.126Z,34400
2016-02-02T10:58:52.173Z,35552
2016-02-02T10:59:05.970Z,34816
2016-02-02T10:59:22.675Z,34176
2016-02-02T10:59:36.363Z,34752
2016-02-02T10:59:50.457Z,35488
2016-02-02T11:00:07.050Z,35776
2016-02-02T11:00:38.053Z,36992
2016-02-02T11:00:51.694Z,37472
2016-02-02T11:01:08.272Z,38496
2016-02-02T11:01:25.041Z,37856
2016-02-02T11:01:38.900Z,38592
2016-02-02T11:01:52.478Z,38048
2016-02-02T11:02:06.853Z,38176
2016-02-02T11:02:48.590Z,38304
2016-02-02T11:03:02.605Z,37568
2016-02-02T11:03:16.746Z,36928
2016-02-02T11:03:30.343Z,37440
2016-02-02T11:03:43.780Z,36832
2016-02-02T11:03:58.030Z,36896
2016-02-02T11:04:26.002Z,36832
2016-02-02T11:04:39.596Z,38560
2016-02-02T11:04:56.564Z,39264
2016-02-02T11:05:10.377Z,37664
2016-02-02T11:05:51.848Z,40736
2016-02-02T11:06:05.707Z,43712
2016-02-02T11:06:19.491Z,42528
2016-02-02T11:06:33.444Z,40128
2016-02-02T11:06:47.944Z,37984
2016-02-02T11:07:05.179Z,38016
2016-02-02T11:07:18.851Z,35648
2016-02-02T11:07:34.728Z,34496
2016-02-02T11:07:48.634Z,33600
2016-02-02T11:08:02.181Z,33216
2016-02-02T11:08:19.196Z,33280
2016-02-02T11:08:32.888Z,34400
2016-02-02T11:08:46.482Z,35936
2016-02-02T11:09:14.310Z,37184
2016-02-02T11:09:28.780Z,37824
2016-02-02T11:09:42.437Z,37888
2016-02-02T11:09:56.645Z,36960
2016-02-02T11:10:14.707Z,36160
2016-02-02T11:10:28.460Z,34784
2016-02-02T11:10:41.851Z,33984
2016-02-02T11:11:23.556Z,34944
2016-02-02T11:11:37.259Z,35392
2016-02-02T11:11:51.150Z,36000
2016-02-02T11:12:19.415Z,36000
2016-02-02T11:12:47.903Z,37248
2016-02-02T11:13:03.621Z,39904
2016-02-02T11:13:17.465Z,38912
2016-02-02T11:13:31.718Z,37696
2016-02-02T11:13:45.531Z,36672
2016-02-02T11:13:59.171Z,34688
2016-02-02T11:14:13.453Z,34976
2016-02-02T11:14:27.503Z,34240
2016-02-02T11:14:41.285Z,34688
2016-02-02T11:14:54.800Z,34752
2016-02-02T11:15:08.800Z,33632
2016-02-02T11:15:22.630Z,33952
2016-02-02T11:15:36.787Z,33920
2016-02-02T11:16:05.177Z,33024
2016-02-02T11:16:21.851Z,32416
2016-02-02T11:16:49.899Z,32576
2016-02-02T11:17:03.727Z,32640
2016-02-02T11:17:34.262Z,33984
2016-02-02T11:17:47.762Z,35232
2016-02-02T11:18:32.686Z,35840
2016-02-02T11:18:46.843Z,35392
2016-02-02T11:19:28.299Z,34656
2016-02-02T11:19:45.205Z,34528
2016-02-02T11:20:13.330Z,36352
2016-02-02T11:20:29.941Z,36352
2016-02-02T11:20:43.488Z,37088
2016-02-02T11:21:11.176Z,36192
2016-02-02T11:21:25.663Z,36320
2016-02-02T11:21:53.322Z,41696
2016-02-02T11:22:07.119Z,35584
2016-02-02T11:22:20.810Z,38656
2016-02-02T11:22:34.325Z,35328
2016-02-02T11:22:48.435Z,35168
2016-02-02T11:23:02.028Z,33536
2016-02-02T11:23:15.669Z,33248
2016-02-02T11:23:30.078Z,33312
2016-02-02T11:23:46.594Z,33440
2016-02-02T11:24:14.547Z,34176
2016-02-02T11:24:55.815Z,34144
2016-02-02T11:25:12.361Z,34816
2016-02-02T11:25:26.130Z,35200
2016-02-02T11:25:39.849Z,35264
2016-02-02T11:25:53.833Z,34624
2016-02-02T11:26:07.599Z,34912
2016-02-02T11:26:21.806Z,35360
2016-02-02T11:26:38.478Z,35456
2016-02-02T11:26:52.134Z,35200
2016-02-02T11:27:05.009Z,35424
2016-02-02T11:27:24.684Z,35328
2016-02-02T11:27:38.184Z,35584
2016-02-02T11:27:51.581Z,36320
2016-02-02T11:28:33.302Z,37792
2016-02-02T11:28:46.880Z,37056
2016-02-02T11:29:00.490Z,37568
2016-02-02T11:29:14.052Z,39008
2016-02-02T11:29:27.929Z,40608
2016-02-02T11:29:41.460Z,45920
2016-02-02T11:29:55.945Z,46240
2016-02-02T11:30:09.570Z,50560
2016-02-02T11:30:23.199Z,47072
2016-02-02T11:30:51.214Z,42400
2016-02-02T11:31:21.873Z,39936
2016-02-02T11:31:35.810Z,46368
2016-02-02T11:31:49.998Z,41600
2016-02-02T11:32:03.498Z,43072
2016-02-02T11:32:17.138Z,42688
2016-02-02T11:32:30.985Z,42272
2016-02-02T11:32:44.719Z,41472
2016-02-02T11:32:58.235Z,43360
2016-02-02T11:33:18.236Z,42848
2016-02-02T11:33:32.192Z,46112
2016-02-02T11:33:46.708Z,44928
2016-02-02T11:34:00.286Z,43264
2016-02-02T11:34:14.005Z,43616
2016-02-02T11:34:27.945Z,44576
2016-02-02T11:34:55.883Z,43456
2016-02-02T11:35:09.633Z,44928
2016-02-02T11:35:51.620Z,40864
2016-02-02T11:36:05.432Z,41440
2016-02-02T11:36:19.307Z,42240
2016-02-02T11:37:01.264Z,40576
2016-02-02T11:37:15.123Z,40064
2016-02-02T11:37:31.641Z,39072
2016-02-02T11:37:49.078Z,37952
2016-02-02T11:38:02.734Z,36576
2016-02-02T11:38:16.562Z,35360
2016-02-02T11:38:30.721Z,34400